createdAt,value
2023-02-08T00:01:25.619Z,55.38
2023-02-08T00:04:05.696Z,63.75
2023-02-08T00:06:59.618Z,65.28
2023-02-08T00:09:53.637Z,61.75
2023-02-08T00:12:47.619Z,54.97
2023-02-08T00:15:41.663Z,63.25
2023-02-08T00:18:36.621Z,60.03
2023-02-08T00:21:24.615Z,57.95
2023-02-08T00:24:04.640Z,56.72
2023-02-08T00:26:58.631Z,59.03
2023-02-08T00:29:45.651Z,58.03
2023-02-08T00:32:21.717Z,56.42
2023-02-08T00:35:08.618Z,62.60
2023-02-08T00:37:41.718Z,55.88
2023-02-08T00:40:28.626Z,53.70
2023-02-08T00:43:09.669Z,54.33
2023-02-08T00:46:14.627Z,59.20
2023-02-08T00:49:01.633Z,50.58
2023-02-08T00:51:34.827Z,47.60
2023-02-08T00:54:23.607Z,43.08
2023-02-08T00:57:03.643Z,48.47
2023-02-08T00:59:50.629Z,52.08
2023-02-08T01:02:23.743Z,55.88
2023-02-08T01:05:10.706Z,42.88
2023-02-08T01:07:44.730Z,50.92
2023-02-08T01:10:31.648Z,54.15
2023-02-08T01:13:07.787Z,58.42
2023-02-08T01:15:54.669Z,46.70
2023-02-08T01:18:30.727Z,53.67
2023-02-08T01:21:20.664Z,51.80
2023-02-08T01:24:01.645Z,46.50
2023-02-08T01:26:55.633Z,46.63
2023-02-08T01:29:49.696Z,46.97
2023-02-08T01:32:43.641Z,49.25
2023-02-08T01:35:30.700Z,52.97
2023-02-08T01:38:10.640Z,46.95
2023-02-08T01:40:57.642Z,44.10
2023-02-08T01:43:43.643Z,50.13
2023-02-08T01:46:37.731Z,46.90
2023-02-08T01:49:40.660Z,41.22
2023-02-08T01:52:38.636Z,47.05
2023-02-08T01:55:49.676Z,44.45
2023-02-08T01:58:40.724Z,48.00
2023-02-08T02:01:14.759Z,44.55
2023-02-08T02:04:01.756Z,40.50
2023-02-08T02:06:46.699Z,45.63
2023-02-08T02:10:03.663Z,40.25
2023-02-08T02:12:51.648Z,40.83
2023-02-08T02:15:25.757Z,44.65
2023-02-08T02:18:14.642Z,40.15
2023-02-08T02:21:08.058Z,39.03
2023-02-08T02:23:57.667Z,38.33
2023-02-08T02:27:05.664Z,39.33
2023-02-08T02:30:02.659Z,43.33
2023-02-08T02:33:06.654Z,43.08
2023-02-08T02:36:13.648Z,39.38
2023-02-08T02:39:45.675Z,49.45
2023-02-08T02:42:52.673Z,50.85
2023-02-08T02:45:53.747Z,46.67
2023-02-08T02:48:49.662Z,46.22
2023-02-08T02:51:57.942Z,38.50
2023-02-08T02:54:52.671Z,44.50
2023-02-08T02:57:32.789Z,50.83
2023-02-08T03:00:27.674Z,46.58
2023-02-08T03:03:00.815Z,44.10
2023-02-08T03:05:47.726Z,45.33
2023-02-08T03:08:46.731Z,40.40
2023-02-08T03:11:44.774Z,44.90
2023-02-08T03:14:59.708Z,34.15
2023-02-08T03:18:19.705Z,35.70
2023-02-08T03:21:24.674Z,39.53
2023-02-08T03:24:15.811Z,33.92
2023-02-08T03:27:15.679Z,37.92
2023-02-08T03:30:10.931Z,33.65
2023-02-08T03:33:05.692Z,34.92
2023-02-08T03:35:48.806Z,39.25
2023-02-08T03:38:49.690Z,40.25
2023-02-08T03:41:36.719Z,30.65
2023-02-08T03:44:38.756Z,34.17
2023-02-08T03:47:31.695Z,37.20
2023-02-08T03:50:09.796Z,39.10
2023-02-08T03:53:05.703Z,41.75
2023-02-08T03:56:03.677Z,37.10
2023-02-08T03:59:00.699Z,37.97
2023-02-08T04:01:39.829Z,41.50
2023-02-08T04:04:27.713Z,35.95
2023-02-08T04:07:01.805Z,36.55
2023-02-08T04:09:48.675Z,42.25
2023-02-08T04:12:24.814Z,43.50
2023-02-08T04:15:11.696Z,36.30
2023-02-08T04:17:51.701Z,31.25
2023-02-08T04:20:38.930Z,44.15
2023-02-08T04:23:19.746Z,36.08
2023-02-08T04:26:06.705Z,35.72
2023-02-08T04:28:39.850Z,33.78
2023-02-08T04:31:26.890Z,32.72
2023-02-08T04:33:59.802Z,36.88
2023-02-08T04:36:46.823Z,35.55
2023-02-08T04:39:19.817Z,35.60
2023-02-08T04:42:06.704Z,32.50
2023-02-08T04:44:46.725Z,33.15
2023-02-08T04:47:33.715Z,29.50
2023-02-08T04:50:06.854Z,29.50
2023-02-08T04:53:00.716Z,27.98
2023-02-08T04:55:47.744Z,26.33
2023-02-08T04:58:27.733Z,30.27
2023-02-08T05:01:22.751Z,28.55
2023-02-08T05:04:09.736Z,31.15
2023-02-08T05:06:49.737Z,34.05
2023-02-08T05:09:36.722Z,31.88
2023-02-08T05:12:09.850Z,30.80
2023-02-08T05:14:56.707Z,30.70
2023-02-08T05:17:36.701Z,34.00
2023-02-08T05:20:23.706Z,30.17
2023-02-08T05:22:56.815Z,28.77
2023-02-08T05:25:45.716Z,25.95
2023-02-08T05:28:18.918Z,33.78
2023-02-08T05:31:05.834Z,35.22
2023-02-08T05:33:38.860Z,29.10
2023-02-08T05:36:26.726Z,33.08
2023-02-08T05:39:06.713Z,28.60
2023-02-08T05:42:00.764Z,31.20
2023-02-08T05:44:47.719Z,31.27
2023-02-08T05:47:20.814Z,30.33
2023-02-08T05:50:07.705Z,30.10
2023-02-08T05:52:40.816Z,32.92
2023-02-08T05:55:27.732Z,41.08
2023-02-08T05:58:00.840Z,33.97
2023-02-08T06:00:47.751Z,32.15
2023-02-08T06:03:20.898Z,36.47
2023-02-08T06:06:07.701Z,27.17
2023-02-08T06:08:47.727Z,30.65
2023-02-08T06:11:34.711Z,34.67
2023-02-08T06:14:14.761Z,35.05
2023-02-08T06:17:08.738Z,40.05
2023-02-08T06:19:55.721Z,35.47
2023-02-08T06:22:28.832Z,32.88
2023-02-08T06:25:15.743Z,39.97
2023-02-08T06:27:57.431Z,35.00
2023-02-08T06:30:45.734Z,32.78
2023-02-08T06:33:18.881Z,37.38
2023-02-08T06:36:05.756Z,37.20
2023-02-08T06:38:38.820Z,39.50
2023-02-08T06:41:25.740Z,38.50
2023-02-08T06:44:00.546Z,39.25
2023-02-08T06:46:40.755Z,36.35
2023-02-08T06:49:20.878Z,34.42
2023-02-08T06:52:00.736Z,33.33
2023-02-08T06:54:40.850Z,33.30
2023-02-08T06:57:20.742Z,33.15
2023-02-08T07:00:00.849Z,45.72
2023-02-08T07:02:40.815Z,34.40
2023-02-08T07:05:20.831Z,37.03
2023-02-08T07:08:00.778Z,39.40
2023-02-08T07:10:41.065Z,37.22
2023-02-08T07:13:20.759Z,34.92
2023-02-08T07:16:00.850Z,35.25
2023-02-08T07:18:41.726Z,33.15
2023-02-08T07:21:21.963Z,33.67
2023-02-08T07:24:01.735Z,37.38
2023-02-08T07:26:41.769Z,36.55
2023-02-08T07:29:14.844Z,32.97
2023-02-08T07:32:01.797Z,39.15
2023-02-08T07:34:43.796Z,37.28
2023-02-08T07:37:30.742Z,42.25
2023-02-08T07:40:10.763Z,29.25
2023-02-08T07:42:57.764Z,33.70
2023-02-08T07:45:38.162Z,30.75
2023-02-08T07:48:31.759Z,28.83
2023-02-08T07:51:19.739Z,24.48
2023-02-08T07:53:52.919Z,25.20
2023-02-08T07:56:39.769Z,24.70
2023-02-08T07:59:19.782Z,29.95
2023-02-08T08:02:06.837Z,31.02
2023-02-08T08:04:39.964Z,28.67
2023-02-08T08:07:26.792Z,23.88
2023-02-08T08:09:59.958Z,24.25
2023-02-08T08:12:46.766Z,27.63
2023-02-08T08:15:19.905Z,26.90
2023-02-08T08:18:06.774Z,26.27
2023-02-08T08:20:41.134Z,21.60
2023-02-08T08:23:30.825Z,27.75
2023-02-08T08:26:10.835Z,25.27
2023-02-08T08:28:57.847Z,22.90
2023-02-08T08:31:37.880Z,22.10
2023-02-08T08:34:36.781Z,22.65
2023-02-08T08:37:30.807Z,20.40
2023-02-08T08:40:25.279Z,22.50
2023-02-08T08:43:11.788Z,22.27
2023-02-08T08:45:44.937Z,19.50
2023-02-08T08:48:31.797Z,23.73
2023-02-08T08:51:04.937Z,19.25
2023-02-08T08:53:58.771Z,22.88
2023-02-08T08:56:45.799Z,20.02
2023-02-08T08:59:25.780Z,23.10
2023-02-08T09:02:12.810Z,21.55
2023-02-08T09:04:45.957Z,19.13
2023-02-08T09:07:32.788Z,22.38
2023-02-08T09:10:12.794Z,19.83
2023-02-08T09:12:59.811Z,21.00
2023-02-08T09:15:39.801Z,17.17
2023-02-08T09:18:26.809Z,17.65
2023-02-08T09:21:06.781Z,16.50
2023-02-08T09:24:00.777Z,16.90
2023-02-08T09:26:47.780Z,16.70
2023-02-08T09:29:20.934Z,18.20
2023-02-08T09:32:10.867Z,15.52
2023-02-08T09:34:43.875Z,18.73
2023-02-08T09:37:30.829Z,16.92
2023-02-08T09:40:03.879Z,14.98
2023-02-08T09:43:10.798Z,22.15
2023-02-08T09:46:20.856Z,16.38
2023-02-08T09:49:18.831Z,14.85
2023-02-08T09:52:10.788Z,16.38
2023-02-08T09:54:49.898Z,16.58
2023-02-08T09:57:41.821Z,15.50
2023-02-08T10:00:22.921Z,14.65
2023-02-08T10:03:09.837Z,15.32
2023-02-08T10:05:42.910Z,14.90
2023-02-08T10:08:35.241Z,14.00
2023-02-08T10:11:35.806Z,14.52
2023-02-08T10:14:46.828Z,16.08
2023-02-08T10:17:58.150Z,15.13
2023-02-08T10:21:16.825Z,15.25
2023-02-08T10:24:40.826Z,12.95
2023-02-08T10:27:59.874Z,16.52
2023-02-08T10:31:03.410Z,14.05
2023-02-08T10:33:55.905Z,14.90
2023-02-08T10:36:40.825Z,13.43
2023-02-08T10:39:38.832Z,16.05
2023-02-08T10:42:26.818Z,17.48
2023-02-08T10:45:33.859Z,15.30
2023-02-08T10:48:11.961Z,14.13
2023-02-08T10:50:58.819Z,14.82
2023-02-08T10:53:38.804Z,14.55
2023-02-08T10:56:42.826Z,14.85
2023-02-08T10:59:36.824Z,15.68
2023-02-08T11:02:38.825Z,14.70
2023-02-08T11:05:44.920Z,15.55
2023-02-08T11:08:41.811Z,13.65
2023-02-08T11:11:28.831Z,16.75
2023-02-08T11:14:46.845Z,13.90
2023-02-08T11:17:37.816Z,13.43
2023-02-08T11:20:17.827Z,14.93
2023-02-08T11:23:05.819Z,14.30
2023-02-08T11:25:49.843Z,14.90
2023-02-08T11:28:44.832Z,15.05
2023-02-08T11:31:31.954Z,13.10
2023-02-08T11:34:14.310Z,13.52
2023-02-08T11:37:37.726Z,13.35
2023-02-08T11:40:40.722Z,14.70
2023-02-08T11:43:34.732Z,15.15
2023-02-08T11:46:17.777Z,15.23
2023-02-08T11:49:04.725Z,13.82
2023-02-08T11:51:41.845Z,13.32
2023-02-08T11:54:40.739Z,13.23
2023-02-08T11:57:33.883Z,14.77
2023-02-08T12:00:29.749Z,15.15
2023-02-08T12:03:31.167Z,14.20
2023-02-08T12:06:32.780Z,15.02
2023-02-08T12:09:20.745Z,15.93
2023-02-08T12:12:25.761Z,14.45
2023-02-08T12:15:04.856Z,15.38
2023-02-08T12:18:09.824Z,15.32
2023-02-08T12:20:47.058Z,14.40
2023-02-08T12:23:36.747Z,14.38
2023-02-08T12:26:29.873Z,12.90
2023-02-08T12:29:38.401Z,14.00
2023-02-08T12:32:56.777Z,13.27
2023-02-08T12:36:03.718Z,14.77
2023-02-08T12:39:31.753Z,13.95
2023-02-08T12:42:04.850Z,15.45
2023-02-08T12:44:57.766Z,15.10
2023-02-08T12:48:12.738Z,16.92
2023-02-08T12:51:12.767Z,14.32
2023-02-08T12:54:04.738Z,15.07
2023-02-08T12:57:02.843Z,14.65
2023-02-08T12:59:54.819Z,13.50
2023-02-08T13:02:44.342Z,16.27
2023-02-08T13:05:36.762Z,15.67
2023-02-08T13:08:45.780Z,15.15
2023-02-08T13:11:53.783Z,13.98
2023-02-08T13:14:52.745Z,15.43
2023-02-08T13:17:36.781Z,15.50
2023-02-08T13:20:36.773Z,14.50
2023-02-08T13:23:50.642Z,16.05
2023-02-08T13:26:39.989Z,16.08
2023-02-08T13:29:28.130Z,14.23
2023-02-08T13:32:11.771Z,14.40
2023-02-08T13:34:50.852Z,13.82
2023-02-08T13:37:41.788Z,15.07
2023-02-08T13:40:29.886Z,15.80
2023-02-08T13:43:34.675Z,16.05
2023-02-08T13:46:16.783Z,13.05
2023-02-08T13:49:11.802Z,13.18
2023-02-08T13:52:08.829Z,14.63
2023-02-08T13:55:33.930Z,13.98
2023-02-08T13:58:35.777Z,15.15
2023-02-08T14:01:25.799Z,15.23
2023-02-08T14:04:37.067Z,14.73
2023-02-08T14:07:52.800Z,29.90
2023-02-08T14:10:37.349Z,16.85
2023-02-08T14:13:35.774Z,17.00
2023-02-08T14:16:40.827Z,17.90
2023-02-08T14:19:37.834Z,17.83
2023-02-08T14:22:25.792Z,18.40
2023-02-08T14:25:12.868Z,16.08
2023-02-08T14:28:04.802Z,19.10
2023-02-08T14:30:46.823Z,18.77
2023-02-08T14:33:45.791Z,23.40
2023-02-08T14:36:48.776Z,17.75
2023-02-08T14:39:45.870Z,16.35
2023-02-08T14:43:12.797Z,17.98
2023-02-08T14:46:01.768Z,15.38
2023-02-08T14:49:02.789Z,19.05
2023-02-08T14:52:03.783Z,20.65
2023-02-08T14:55:00.816Z,16.33
2023-02-08T14:57:40.870Z,22.27
2023-02-08T15:00:32.845Z,18.90
2023-02-08T15:03:14.792Z,22.02
2023-02-08T15:06:31.824Z,20.17
2023-02-08T15:09:04.913Z,22.67
2023-02-08T15:12:15.854Z,20.92
2023-02-08T15:14:50.934Z,23.77
2023-02-08T15:17:40.849Z,28.75
2023-02-08T15:20:24.043Z,29.73
2023-02-08T15:23:33.828Z,24.85
2023-02-08T15:26:10.931Z,23.65
2023-02-08T15:28:59.615Z,27.33
2023-02-08T15:31:56.417Z,31.98
2023-02-08T15:34:47.826Z,29.13
2023-02-08T15:37:26.008Z,28.45
2023-02-08T15:40:12.808Z,40.53
2023-02-08T15:42:49.896Z,33.70
2023-02-08T15:45:36.814Z,36.15
2023-02-08T15:48:18.813Z,35.05
2023-02-08T15:50:51.887Z,34.13
2023-02-08T15:53:38.821Z,26.05
2023-02-08T15:56:12.930Z,28.60
2023-02-08T15:59:03.809Z,26.48
2023-02-08T16:01:37.902Z,34.70
2023-02-08T16:04:24.807Z,30.88
2023-02-08T16:07:11.882Z,30.27
2023-02-08T16:10:05.892Z,28.63
2023-02-08T16:13:04.913Z,25.95
2023-02-08T16:16:03.771Z,32.38
2023-02-08T16:19:13.837Z,31.38
2023-02-08T16:22:22.823Z,35.20
2023-02-08T16:25:03.185Z,31.75
2023-02-08T16:28:00.841Z,27.23
2023-02-08T16:30:50.893Z,29.83
2023-02-08T16:33:24.917Z,35.35
2023-02-08T16:36:18.895Z,39.35
2023-02-08T16:39:20.863Z,32.58
2023-02-08T16:42:14.193Z,40.65
2023-02-08T16:45:14.859Z,31.10
2023-02-08T16:48:04.197Z,36.17
2023-02-08T16:50:59.884Z,35.83
2023-02-08T16:53:42.938Z,34.28
2023-02-08T16:56:37.822Z,39.92
2023-02-08T16:59:24.852Z,47.38
2023-02-08T17:01:58.055Z,32.72
2023-02-08T17:04:44.846Z,39.10
2023-02-08T17:07:29.691Z,45.28
2023-02-08T17:10:28.484Z,46.35
2023-02-08T17:13:20.611Z,42.65
2023-02-08T17:16:00.865Z,46.17
2023-02-08T17:18:41.058Z,37.38
2023-02-08T17:21:21.834Z,42.15
2023-02-08T17:24:01.889Z,44.65
2023-02-08T17:26:47.914Z,44.47
2023-02-08T17:29:41.821Z,44.35
2023-02-08T17:32:28.841Z,43.85
2023-02-08T17:35:01.951Z,37.97
2023-02-08T17:37:48.931Z,41.17
2023-02-08T17:40:33.841Z,48.88
2023-02-08T17:43:27.922Z,47.15
2023-02-08T17:46:23.866Z,40.35
2023-02-08T17:49:05.877Z,46.47
2023-02-08T17:51:52.873Z,37.70
2023-02-08T17:54:32.839Z,51.20
2023-02-08T17:57:19.984Z,51.33
2023-02-08T17:59:52.999Z,47.85
2023-02-08T18:02:39.884Z,58.40
2023-02-08T18:05:16.071Z,52.85
2023-02-08T18:08:03.830Z,48.53
2023-02-08T18:10:37.021Z,60.00
2023-02-08T18:13:23.849Z,48.50
2023-02-08T18:16:03.905Z,50.72
2023-02-08T18:18:51.845Z,50.03
2023-02-08T18:21:38.846Z,48.42
2023-02-08T18:24:32.908Z,44.97
2023-02-08T18:27:19.858Z,41.00
2023-02-08T18:29:52.959Z,42.97
2023-02-08T18:32:40.865Z,46.70
2023-02-08T18:35:14.973Z,44.08
2023-02-08T18:38:01.889Z,35.72
2023-02-08T18:40:41.908Z,48.15
2023-02-08T18:43:28.848Z,42.15
2023-02-08T18:46:11.119Z,45.55
2023-02-08T18:48:59.930Z,44.13
2023-02-08T18:51:40.856Z,38.10
2023-02-08T18:54:34.872Z,37.53
2023-02-08T18:57:28.882Z,40.08
2023-02-08T19:00:22.855Z,37.42
2023-02-08T19:03:09.864Z,43.97
2023-02-08T19:05:45.999Z,39.20
2023-02-08T19:08:32.869Z,40.35
2023-02-08T19:11:06.027Z,40.97
2023-02-08T19:13:52.868Z,37.92
2023-02-08T19:16:33.901Z,49.17
2023-02-08T19:19:27.930Z,42.55
2023-02-08T19:22:14.872Z,53.58
2023-02-08T19:24:54.879Z,62.67
2023-02-08T19:27:49.045Z,70.38
2023-02-08T19:30:38.940Z,75.75
2023-02-08T19:33:12.015Z,84.53
2023-02-08T19:35:58.896Z,66.18
2023-02-08T19:38:32.026Z,83.30
2023-02-08T19:41:24.906Z,71.53
2023-02-08T19:43:58.974Z,63.70
2023-02-08T19:46:45.895Z,47.42
2023-02-08T19:49:20.032Z,58.38
2023-02-08T19:52:06.864Z,61.08
2023-02-08T19:54:40.026Z,56.70
2023-02-08T19:57:26.869Z,48.90
2023-02-08T20:00:17.560Z,50.13
2023-02-08T20:03:20.797Z,57.00
2023-02-08T20:05:57.792Z,45.83
2023-02-08T20:08:44.918Z,52.40
2023-02-08T20:11:26.990Z,48.40
2023-02-08T20:14:14.901Z,44.35
2023-02-08T20:16:48.117Z,42.63
2023-02-08T20:19:35.906Z,54.58
2023-02-08T20:22:15.904Z,57.15
2023-02-08T20:25:10.891Z,54.30
2023-02-08T20:27:57.947Z,68.88
2023-02-08T20:30:32.052Z,48.70
2023-02-08T20:33:18.918Z,45.28
2023-02-08T20:35:52.119Z,45.97
2023-02-08T20:38:38.896Z,46.20
2023-02-08T20:41:25.883Z,44.30
2023-02-08T20:44:19.897Z,51.05
2023-02-08T20:47:15.900Z,45.83
2023-02-08T20:50:10.296Z,44.80
2023-02-08T20:52:47.109Z,54.45
2023-02-08T20:55:33.906Z,44.40
2023-02-08T20:58:13.912Z,48.05
2023-02-08T21:01:00.960Z,53.10
2023-02-08T21:03:34.026Z,53.00
2023-02-08T21:06:29.914Z,55.50
2023-02-08T21:09:06.175Z,51.10
2023-02-08T21:11:53.923Z,59.38
2023-02-08T21:14:35.908Z,64.80
2023-02-08T21:17:29.910Z,48.72
2023-02-08T21:20:17.939Z,53.90
2023-02-08T21:22:57.904Z,56.75
2023-02-08T21:25:54.930Z,53.47
2023-02-08T21:28:49.957Z,45.55
2023-02-08T21:31:36.999Z,60.03
2023-02-08T21:34:13.101Z,61.70
2023-02-08T21:37:06.915Z,47.65
2023-02-08T21:39:53.904Z,42.17
2023-02-08T21:42:33.913Z,45.33
2023-02-08T21:45:20.926Z,48.83
2023-02-08T21:47:54.026Z,36.13
2023-02-08T21:50:59.926Z,48.47
2023-02-08T21:53:58.945Z,48.90
2023-02-08T21:56:45.946Z,39.65
2023-02-08T21:59:19.047Z,46.83
2023-02-08T22:02:05.930Z,37.42
2023-02-08T22:04:59.956Z,34.10
2023-02-08T22:07:59.945Z,40.85
2023-02-08T22:10:38.250Z,46.78
2023-02-08T22:13:24.931Z,37.30
2023-02-08T22:15:59.353Z,49.15
2023-02-08T22:18:47.940Z,39.38
2023-02-08T22:21:24.226Z,47.88
2023-02-08T22:24:10.972Z,34.28
2023-02-08T22:26:44.163Z,35.22
2023-02-08T22:29:31.115Z,40.33
2023-02-08T22:32:05.734Z,64.70
2023-02-08T22:34:53.920Z,54.28
2023-02-08T22:37:33.936Z,56.00
2023-02-08T22:40:20.931Z,59.42
2023-02-08T22:43:00.946Z,52.17
2023-02-08T22:45:48.964Z,61.80
2023-02-08T22:48:28.928Z,53.50
2023-02-08T22:51:29.917Z,62.13
2023-02-08T22:54:16.961Z,47.53
2023-02-08T22:56:50.126Z,50.10
2023-02-08T22:59:36.926Z,34.72
2023-02-08T23:02:11.225Z,44.05
2023-02-08T23:04:58.947Z,38.47
2023-02-08T23:07:38.928Z,48.95
2023-02-08T23:10:32.932Z,41.70
2023-02-08T23:13:19.947Z,43.90
2023-02-08T23:15:53.197Z,41.03
2023-02-08T23:18:42.944Z,45.42
2023-02-08T23:21:20.123Z,42.42
2023-02-08T23:24:06.933Z,40.50
2023-02-08T23:26:40.164Z,38.63
2023-02-08T23:29:26.961Z,40.97
2023-02-08T23:32:00.222Z,52.80
2023-02-08T23:34:47.009Z,45.03
2023-02-08T23:37:20.173Z,54.22
2023-02-08T23:40:06.932Z,56.58
2023-02-08T23:42:40.180Z,49.17
2023-02-08T23:45:26.961Z,45.25
2023-02-08T23:48:00.047Z,51.38
2023-02-08T23:50:47.157Z,44.22
2023-02-08T23:53:21.078Z,42.40
2023-02-08T23:56:11.951Z,47.78
2023-02-08T23:58:45.063Z,38.33
